sensor_id;sensor_type;location;lat;lon;timestamp;P1;durP1;ratioP1;P2;durP2;ratioP2
35646;SDS011;28680;45.642;13.756;2023-05-29T00:01:21;8.20;;;5.50;;
35646;SDS011;28680;45.642;13.756;2023-05-29T00:03:49;12.70;;;6.15;;
35646;SDS011;28680;45.642;13.756;2023-05-29T00:06:16;11.95;;;5.63;;
35646;SDS011;28680;45.642;13.756;2023-05-29T00:08:44;9.15;;;6.28;;
35646;SDS011;28680;45.642;13.756;2023-05-29T00:11:10;11.27;;;5.95;;
35646;SDS011;28680;45.642;13.756;2023-05-29T00:13:36;9.60;;;5.10;;
35646;SDS011;28680;45.642;13.756;2023-05-29T00:16:02;11.63;;;5.90;;
35646;SDS011;28680;45.642;13.756;2023-05-29T00:18:29;11.25;;;6.60;;
35646;SDS011;28680;45.642;13.756;2023-05-29T00:20:55;10.80;;;5.50;;
35646;SDS011;28680;45.642;13.756;2023-05-29T00:23:21;9.70;;;5.53;;
35646;SDS011;28680;45.642;13.756;2023-05-29T00:25:47;12.20;;;5.88;;
35646;SDS011;28680;45.642;13.756;2023-05-29T00:28:13;10.48;;;5.70;;
35646;SDS011;28680;45.642;13.756;2023-05-29T00:30:39;11.75;;;5.70;;
35646;SDS011;28680;45.642;13.756;2023-05-29T00:33:05;9.27;;;5.55;;
35646;SDS011;28680;45.642;13.756;2023-05-29T00:35:31;10.27;;;6.15;;
35646;SDS011;28680;45.642;13.756;2023-05-29T00:37:57;9.95;;;5.90;;
35646;SDS011;28680;45.642;13.756;2023-05-29T00:40:23;8.88;;;5.53;;
35646;SDS011;28680;45.642;13.756;2023-05-29T00:42:50;9.77;;;6.00;;
35646;SDS011;28680;45.642;13.756;2023-05-29T00:45:16;8.48;;;5.75;;
35646;SDS011;28680;45.642;13.756;2023-05-29T00:47:43;9.43;;;5.25;;
35646;SDS011;28680;45.642;13.756;2023-05-29T00:50:09;9.30;;;5.72;;
35646;SDS011;28680;45.642;13.756;2023-05-29T00:52:39;12.38;;;5.85;;
35646;SDS011;28680;45.642;13.756;2023-05-29T00:55:10;14.25;;;6.28;;
35646;SDS011;28680;45.642;13.756;2023-05-29T00:57:36;9.40;;;5.38;;
35646;SDS011;28680;45.642;13.756;2023-05-29T01:00:04;10.68;;;5.90;;
35646;SDS011;28680;45.642;13.756;2023-05-29T01:02:36;9.35;;;5.68;;
35646;SDS011;28680;45.642;13.756;2023-05-29T01:05:03;8.90;;;5.55;;
35646;SDS011;28680;45.642;13.756;2023-05-29T01:07:30;11.95;;;6.13;;
35646;SDS011;28680;45.642;13.756;2023-05-29T01:09:58;9.35;;;5.47;;
35646;SDS011;28680;45.642;13.756;2023-05-29T01:24:57;10.00;;;5.25;;
35646;SDS011;28680;45.642;13.756;2023-05-29T01:27:24;12.55;;;5.75;;
35646;SDS011;28680;45.642;13.756;2023-05-29T01:29:51;12.35;;;5.72;;
35646;SDS011;28680;45.642;13.756;2023-05-29T01:32:20;9.95;;;5.20;;
35646;SDS011;28680;45.642;13.756;2023-05-29T01:34:47;6.97;;;5.00;;
35646;SDS011;28680;45.642;13.756;2023-05-29T01:37:13;10.73;;;5.47;;
35646;SDS011;28680;45.642;13.756;2023-05-29T01:39:39;10.27;;;5.15;;
35646;SDS011;28680;45.642;13.756;2023-05-29T01:42:05;9.20;;;5.05;;
35646;SDS011;28680;45.642;13.756;2023-05-29T01:44:32;9.48;;;4.97;;
35646;SDS011;28680;45.642;13.756;2023-05-29T01:46:59;13.55;;;5.35;;
35646;SDS011;28680;45.642;13.756;2023-05-29T01:49:25;9.18;;;5.45;;
35646;SDS011;28680;45.642;13.756;2023-05-29T01:51:53;7.78;;;4.97;;
35646;SDS011;28680;45.642;13.756;2023-05-29T01:54:18;8.70;;;5.57;;
35646;SDS011;28680;45.642;13.756;2023-05-29T01:56:45;9.38;;;4.53;;
35646;SDS011;28680;45.642;13.756;2023-05-29T01:59:12;8.40;;;5.50;;
35646;SDS011;28680;45.642;13.756;2023-05-29T02:01:38;8.20;;;5.13;;
35646;SDS011;28680;45.642;13.756;2023-05-29T02:04:05;10.65;;;5.25;;
35646;SDS011;28680;45.642;13.756;2023-05-29T02:06:31;12.70;;;4.78;;
35646;SDS011;28680;45.642;13.756;2023-05-29T02:08:58;9.63;;;4.97;;
35646;SDS011;28680;45.642;13.756;2023-05-29T02:11:24;14.52;;;5.55;;
35646;SDS011;28680;45.642;13.756;2023-05-29T02:13:51;8.82;;;5.05;;
35646;SDS011;28680;45.642;13.756;2023-05-29T02:16:17;10.73;;;5.45;;
35646;SDS011;28680;45.642;13.756;2023-05-29T02:18:45;7.80;;;4.93;;
35646;SDS011;28680;45.642;13.756;2023-05-29T02:21:12;9.63;;;5.35;;
35646;SDS011;28680;45.642;13.756;2023-05-29T02:23:38;10.98;;;5.20;;
35646;SDS011;28680;45.642;13.756;2023-05-29T02:26:04;10.65;;;5.32;;
35646;SDS011;28680;45.642;13.756;2023-05-29T02:28:30;8.25;;;4.65;;
35646;SDS011;28680;45.642;13.756;2023-05-29T02:30:56;11.07;;;5.15;;
35646;SDS011;28680;45.642;13.756;2023-05-29T02:33:22;7.70;;;4.93;;
35646;SDS011;28680;45.642;13.756;2023-05-29T02:35:48;11.27;;;5.13;;
35646;SDS011;28680;45.642;13.756;2023-05-29T02:38:14;9.40;;;5.05;;
35646;SDS011;28680;45.642;13.756;2023-05-29T02:40:40;8.65;;;5.22;;
35646;SDS011;28680;45.642;13.756;2023-05-29T02:43:08;8.02;;;4.72;;
35646;SDS011;28680;45.642;13.756;2023-05-29T02:45:34;7.53;;;4.82;;
35646;SDS011;28680;45.642;13.756;2023-05-29T02:48:00;9.90;;;4.60;;
35646;SDS011;28680;45.642;13.756;2023-05-29T02:50:26;11.65;;;4.90;;
35646;SDS011;28680;45.642;13.756;2023-05-29T02:52:53;8.48;;;4.68;;
35646;SDS011;28680;45.642;13.756;2023-05-29T02:55:19;10.60;;;5.78;;
35646;SDS011;28680;45.642;13.756;2023-05-29T02:57:44;9.35;;;4.82;;
35646;SDS011;28680;45.642;13.756;2023-05-29T03:00:11;9.95;;;5.32;;
35646;SDS011;28680;45.642;13.756;2023-05-29T03:02:38;10.55;;;4.95;;
35646;SDS011;28680;45.642;13.756;2023-05-29T03:05:03;9.52;;;4.85;;
35646;SDS011;28680;45.642;13.756;2023-05-29T03:07:30;10.27;;;5.28;;
35646;SDS011;28680;45.642;13.756;2023-05-29T03:09:56;10.38;;;5.07;;
35646;SDS011;28680;45.642;13.756;2023-05-29T03:12:22;13.48;;;5.68;;
35646;SDS011;28680;45.642;13.756;2023-05-29T03:14:48;8.50;;;4.50;;
35646;SDS011;28680;45.642;13.756;2023-05-29T03:17:14;8.98;;;4.72;;
35646;SDS011;28680;45.642;13.756;2023-05-29T03:19:40;8.85;;;4.72;;
35646;SDS011;28680;45.642;13.756;2023-05-29T03:22:06;9.70;;;4.95;;
35646;SDS011;28680;45.642;13.756;2023-05-29T03:24:32;8.32;;;5.07;;
35646;SDS011;28680;45.642;13.756;2023-05-29T03:27:00;12.95;;;5.10;;
35646;SDS011;28680;45.642;13.756;2023-05-29T03:29:28;9.43;;;4.53;;
35646;SDS011;28680;45.642;13.756;2023-05-29T03:31:56;14.75;;;5.78;;
35646;SDS011;28680;45.642;13.756;2023-05-29T03:34:22;30.48;;;7.60;;
35646;SDS011;28680;45.642;13.756;2023-05-29T03:36:48;12.07;;;5.20;;
35646;SDS011;28680;45.642;13.756;2023-05-29T03:39:14;22.50;;;6.65;;
35646;SDS011;28680;45.642;13.756;2023-05-29T03:41:43;7.28;;;4.75;;
35646;SDS011;28680;45.642;13.756;2023-05-29T03:44:09;12.07;;;4.97;;
35646;SDS011;28680;45.642;13.756;2023-05-29T03:46:35;9.10;;;4.80;;
35646;SDS011;28680;45.642;13.756;2023-05-29T03:49:01;8.68;;;4.35;;
35646;SDS011;28680;45.642;13.756;2023-05-29T03:51:26;6.47;;;4.20;;
35646;SDS011;28680;45.642;13.756;2023-05-29T03:53:52;7.68;;;4.95;;
35646;SDS011;28680;45.642;13.756;2023-05-29T03:56:18;8.68;;;4.70;;
35646;SDS011;28680;45.642;13.756;2023-05-29T03:58:44;13.30;;;5.43;;
35646;SDS011;28680;45.642;13.756;2023-05-29T04:01:10;9.13;;;4.47;;
35646;SDS011;28680;45.642;13.756;2023-05-29T04:03:36;7.85;;;4.53;;
35646;SDS011;28680;45.642;13.756;2023-05-29T04:06:02;10.75;;;5.07;;
35646;SDS011;28680;45.642;13.756;2023-05-29T04:08:29;12.00;;;4.90;;
35646;SDS011;28680;45.642;13.756;2023-05-29T04:10:54;10.18;;;4.75;;
35646;SDS011;28680;45.642;13.756;2023-05-29T04:13:20;10.88;;;4.95;;
35646;SDS011;28680;45.642;13.756;2023-05-29T04:15:46;10.13;;;4.90;;
35646;SDS011;28680;45.642;13.756;2023-05-29T04:18:12;11.05;;;4.75;;
35646;SDS011;28680;45.642;13.756;2023-05-29T04:20:38;6.75;;;4.35;;
35646;SDS011;28680;45.642;13.756;2023-05-29T04:23:05;9.82;;;4.78;;
35646;SDS011;28680;45.642;13.756;2023-05-29T04:25:31;7.90;;;4.30;;
35646;SDS011;28680;45.642;13.756;2023-05-29T04:27:58;7.28;;;4.45;;
35646;SDS011;28680;45.642;13.756;2023-05-29T04:30:27;6.72;;;4.40;;
35646;SDS011;28680;45.642;13.756;2023-05-29T04:32:53;11.50;;;5.10;;
35646;SDS011;28680;45.642;13.756;2023-05-29T04:35:19;9.23;;;4.85;;
35646;SDS011;28680;45.642;13.756;2023-05-29T04:37:46;7.57;;;4.57;;
35646;SDS011;28680;45.642;13.756;2023-05-29T04:40:12;9.98;;;4.93;;
35646;SDS011;28680;45.642;13.756;2023-05-29T04:42:42;11.50;;;4.93;;
35646;SDS011;28680;45.642;13.756;2023-05-29T04:45:10;8.00;;;4.68;;
35646;SDS011;28680;45.642;13.756;2023-05-29T04:47:36;8.50;;;4.93;;
35646;SDS011;28680;45.642;13.756;2023-05-29T04:50:09;10.18;;;4.80;;
35646;SDS011;28680;45.642;13.756;2023-05-29T04:52:39;10.55;;;4.95;;
35646;SDS011;28680;45.642;13.756;2023-05-29T04:55:05;9.70;;;5.15;;
35646;SDS011;28680;45.642;13.756;2023-05-29T04:57:31;11.70;;;4.57;;
35646;SDS011;28680;45.642;13.756;2023-05-29T04:59:58;8.75;;;4.90;;
35646;SDS011;28680;45.642;13.756;2023-05-29T05:02:24;9.13;;;4.72;;
35646;SDS011;28680;45.642;13.756;2023-05-29T05:04:50;10.18;;;5.13;;
35646;SDS011;28680;45.642;13.756;2023-05-29T05:07:16;10.65;;;4.60;;
35646;SDS011;28680;45.642;13.756;2023-05-29T05:09:42;10.18;;;5.15;;
35646;SDS011;28680;45.642;13.756;2023-05-29T05:12:08;12.02;;;5.20;;
35646;SDS011;28680;45.642;13.756;2023-05-29T05:14:34;11.65;;;5.90;;
35646;SDS011;28680;45.642;13.756;2023-05-29T05:17:00;8.50;;;4.93;;
35646;SDS011;28680;45.642;13.756;2023-05-29T05:19:26;11.82;;;5.60;;
35646;SDS011;28680;45.642;13.756;2023-05-29T05:21:52;7.88;;;4.75;;
35646;SDS011;28680;45.642;13.756;2023-05-29T05:24:17;10.10;;;5.28;;
35646;SDS011;28680;45.642;13.756;2023-05-29T05:26:43;10.15;;;5.03;;
35646;SDS011;28680;45.642;13.756;2023-05-29T05:29:09;9.02;;;4.75;;
35646;SDS011;28680;45.642;13.756;2023-05-29T05:31:35;8.88;;;4.95;;
35646;SDS011;28680;45.642;13.756;2023-05-29T05:34:01;8.90;;;4.65;;
35646;SDS011;28680;45.642;13.756;2023-05-29T05:36:27;9.32;;;5.10;;
35646;SDS011;28680;45.642;13.756;2023-05-29T05:38:53;14.45;;;5.93;;
35646;SDS011;28680;45.642;13.756;2023-05-29T05:41:19;12.48;;;5.50;;
35646;SDS011;28680;45.642;13.756;2023-05-29T05:43:46;11.85;;;5.53;;
35646;SDS011;28680;45.642;13.756;2023-05-29T05:46:12;7.78;;;4.85;;
35646;SDS011;28680;45.642;13.756;2023-05-29T05:48:39;13.02;;;5.85;;
35646;SDS011;28680;45.642;13.756;2023-05-29T05:51:06;12.18;;;5.40;;
35646;SDS011;28680;45.642;13.756;2023-05-29T05:53:31;12.23;;;5.63;;
35646;SDS011;28680;45.642;13.756;2023-05-29T05:55:58;10.02;;;5.28;;
35646;SDS011;28680;45.642;13.756;2023-05-29T05:58:25;8.82;;;4.72;;
35646;SDS011;28680;45.642;13.756;2023-05-29T06:00:51;10.88;;;5.57;;
35646;SDS011;28680;45.642;13.756;2023-05-29T06:03:23;12.30;;;5.10;;
35646;SDS011;28680;45.642;13.756;2023-05-29T06:05:49;12.77;;;5.05;;
35646;SDS011;28680;45.642;13.756;2023-05-29T06:08:17;8.65;;;5.18;;
35646;SDS011;28680;45.642;13.756;2023-05-29T06:14:27;11.95;;;5.30;;
35646;SDS011;28680;45.642;13.756;2023-05-29T06:16:53;9.75;;;4.78;;
35646;SDS011;28680;45.642;13.756;2023-05-29T06:19:22;9.50;;;5.00;;
35646;SDS011;28680;45.642;13.756;2023-05-29T06:21:57;10.00;;;5.22;;
35646;SDS011;28680;45.642;13.756;2023-05-29T06:24:29;6.68;;;4.10;;
35646;SDS011;28680;45.642;13.756;2023-05-29T06:26:57;8.45;;;4.60;;
35646;SDS011;28680;45.642;13.756;2023-05-29T06:29:23;10.60;;;4.80;;
35646;SDS011;28680;45.642;13.756;2023-05-29T06:31:49;8.90;;;4.22;;
35646;SDS011;28680;45.642;13.756;2023-05-29T06:34:15;9.82;;;4.97;;
35646;SDS011;28680;45.642;13.756;2023-05-29T06:36:41;9.95;;;5.32;;
35646;SDS011;28680;45.642;13.756;2023-05-29T06:39:07;11.43;;;5.20;;
35646;SDS011;28680;45.642;13.756;2023-05-29T06:41:39;11.05;;;5.13;;
35646;SDS011;28680;45.642;13.756;2023-05-29T06:44:14;9.77;;;4.60;;
35646;SDS011;28680;45.642;13.756;2023-05-29T06:47:14;8.73;;;5.10;;
35646;SDS011;28680;45.642;13.756;2023-05-29T06:49:40;7.78;;;4.82;;
35646;SDS011;28680;45.642;13.756;2023-05-29T06:54:52;10.27;;;4.88;;
35646;SDS011;28680;45.642;13.756;2023-05-29T06:57:19;9.77;;;4.57;;
35646;SDS011;28680;45.642;13.756;2023-05-29T07:15:41;8.68;;;4.22;;
35646;SDS011;28680;45.642;13.756;2023-05-29T07:18:24;8.35;;;4.03;;
35646;SDS011;28680;45.642;13.756;2023-05-29T07:20:50;8.15;;;4.53;;
35646;SDS011;28680;45.642;13.756;2023-05-29T07:23:23;9.60;;;5.20;;
35646;SDS011;28680;45.642;13.756;2023-05-29T07:25:49;9.80;;;4.87;;
35646;SDS011;28680;45.642;13.756;2023-05-29T07:28:15;8.95;;;4.68;;
35646;SDS011;28680;45.642;13.756;2023-05-29T07:30:41;10.82;;;5.10;;
35646;SDS011;28680;45.642;13.756;2023-05-29T07:33:10;8.65;;;5.13;;
35646;SDS011;28680;45.642;13.756;2023-05-29T07:35:36;9.80;;;4.70;;
35646;SDS011;28680;45.642;13.756;2023-05-29T07:38:02;7.68;;;4.82;;
35646;SDS011;28680;45.642;13.756;2023-05-29T07:40:36;8.75;;;4.63;;
35646;SDS011;28680;45.642;13.756;2023-05-29T07:43:04;10.02;;;4.47;;
35646;SDS011;28680;45.642;13.756;2023-05-29T07:45:30;15.27;;;4.85;;
35646;SDS011;28680;45.642;13.756;2023-05-29T07:47:56;13.90;;;4.90;;
35646;SDS011;28680;45.642;13.756;2023-05-29T07:50:22;12.00;;;4.68;;
35646;SDS011;28680;45.642;13.756;2023-05-29T07:52:48;9.57;;;5.05;;
35646;SDS011;28680;45.642;13.756;2023-05-29T07:55:14;10.20;;;4.82;;
35646;SDS011;28680;45.642;13.756;2023-05-29T07:57:40;10.65;;;5.40;;
35646;SDS011;28680;45.642;13.756;2023-05-29T08:00:06;10.23;;;5.15;;
35646;SDS011;28680;45.642;13.756;2023-05-29T08:02:33;10.30;;;4.32;;
35646;SDS011;28680;45.642;13.756;2023-05-29T08:05:01;7.93;;;4.30;;
35646;SDS011;28680;45.642;13.756;2023-05-29T08:07:29;9.75;;;5.65;;
35646;SDS011;28680;45.642;13.756;2023-05-29T08:10:01;8.93;;;4.25;;
35646;SDS011;28680;45.642;13.756;2023-05-29T08:12:27;9.30;;;4.70;;
35646;SDS011;28680;45.642;13.756;2023-05-29T08:14:56;12.55;;;5.20;;
35646;SDS011;28680;45.642;13.756;2023-05-29T08:17:25;11.40;;;4.50;;
35646;SDS011;28680;45.642;13.756;2023-05-29T08:19:51;11.00;;;4.93;;
35646;SDS011;28680;45.642;13.756;2023-05-29T08:22:18;10.63;;;4.97;;
35646;SDS011;28680;45.642;13.756;2023-05-29T08:24:44;8.00;;;4.22;;
35646;SDS011;28680;45.642;13.756;2023-05-29T08:27:10;12.27;;;4.70;;
35646;SDS011;28680;45.642;13.756;2023-05-29T08:29:36;6.93;;;4.28;;
35646;SDS011;28680;45.642;13.756;2023-05-29T08:32:03;7.80;;;4.32;;
35646;SDS011;28680;45.642;13.756;2023-05-29T08:34:29;12.80;;;5.25;;
35646;SDS011;28680;45.642;13.756;2023-05-29T08:36:55;12.80;;;4.38;;
35646;SDS011;28680;45.642;13.756;2023-05-29T08:39:21;8.20;;;4.68;;
35646;SDS011;28680;45.642;13.756;2023-05-29T08:44:26;8.35;;;4.63;;
35646;SDS011;28680;45.642;13.756;2023-05-29T08:46:57;11.18;;;5.05;;
35646;SDS011;28680;45.642;13.756;2023-05-29T08:49:29;12.82;;;5.45;;
35646;SDS011;28680;45.642;13.756;2023-05-29T08:52:16;9.98;;;4.38;;
35646;SDS011;28680;45.642;13.756;2023-05-29T08:54:47;8.20;;;4.68;;
35646;SDS011;28680;45.642;13.756;2023-05-29T08:57:13;18.45;;;4.85;;
35646;SDS011;28680;45.642;13.756;2023-05-29T08:59:40;9.43;;;4.82;;
35646;SDS011;28680;45.642;13.756;2023-05-29T09:02:09;10.85;;;4.82;;
35646;SDS011;28680;45.642;13.756;2023-05-29T09:04:36;7.38;;;3.95;;
35646;SDS011;28680;45.642;13.756;2023-05-29T09:07:03;7.13;;;4.18;;
35646;SDS011;28680;45.642;13.756;2023-05-29T09:09:29;9.88;;;4.30;;
35646;SDS011;28680;45.642;13.756;2023-05-29T09:11:57;10.18;;;4.65;;
35646;SDS011;28680;45.642;13.756;2023-05-29T09:17:04;12.93;;;5.03;;
35646;SDS011;28680;45.642;13.756;2023-05-29T09:19:33;7.68;;;4.15;;
35646;SDS011;28680;45.642;13.756;2023-05-29T09:22:12;8.95;;;4.72;;
35646;SDS011;28680;45.642;13.756;2023-05-29T09:24:43;14.65;;;4.50;;
35646;SDS011;28680;45.642;13.756;2023-05-29T09:27:13;6.88;;;3.95;;
35646;SDS011;28680;45.642;13.756;2023-05-29T09:29:41;8.73;;;4.47;;
35646;SDS011;28680;45.642;13.756;2023-05-29T09:32:08;10.57;;;4.60;;
35646;SDS011;28680;45.642;13.756;2023-05-29T09:34:42;10.80;;;4.45;;
35646;SDS011;28680;45.642;13.756;2023-05-29T09:37:09;9.70;;;4.15;;
35646;SDS011;28680;45.642;13.756;2023-05-29T09:39:47;6.65;;;4.25;;
35646;SDS011;28680;45.642;13.756;2023-05-29T09:42:13;9.55;;;4.93;;
35646;SDS011;28680;45.642;13.756;2023-05-29T09:44:41;8.00;;;4.80;;
35646;SDS011;28680;45.642;13.756;2023-05-29T09:47:09;7.80;;;4.40;;
35646;SDS011;28680;45.642;13.756;2023-05-29T09:49:43;10.32;;;4.78;;
35646;SDS011;28680;45.642;13.756;2023-05-29T09:52:13;7.50;;;4.55;;
35646;SDS011;28680;45.642;13.756;2023-05-29T09:54:43;7.43;;;4.18;;
35646;SDS011;28680;45.642;13.756;2023-05-29T09:57:13;6.75;;;4.32;;
35646;SDS011;28680;45.642;13.756;2023-05-29T09:59:45;7.00;;;4.18;;
35646;SDS011;28680;45.642;13.756;2023-05-29T10:02:16;6.80;;;4.30;;
35646;SDS011;28680;45.642;13.756;2023-05-29T10:04:43;7.00;;;4.43;;
35646;SDS011;28680;45.642;13.756;2023-05-29T10:07:11;7.78;;;4.18;;
35646;SDS011;28680;45.642;13.756;2023-05-29T10:09:55;6.97;;;3.80;;
35646;SDS011;28680;45.642;13.756;2023-05-29T10:12:33;6.25;;;3.63;;
35646;SDS011;28680;45.642;13.756;2023-05-29T10:15:06;9.93;;;4.18;;
35646;SDS011;28680;45.642;13.756;2023-05-29T10:17:38;7.28;;;3.63;;
35646;SDS011;28680;45.642;13.756;2023-05-29T10:20:27;6.82;;;3.80;;
35646;SDS011;28680;45.642;13.756;2023-05-29T10:22:55;10.05;;;4.50;;
35646;SDS011;28680;45.642;13.756;2023-05-29T10:25:24;5.45;;;3.88;;
35646;SDS011;28680;45.642;13.756;2023-05-29T10:27:55;11.65;;;3.80;;
35646;SDS011;28680;45.642;13.756;2023-05-29T10:36:35;6.22;;;4.13;;
35646;SDS011;28680;45.642;13.756;2023-05-29T10:39:12;7.78;;;4.45;;
35646;SDS011;28680;45.642;13.756;2023-05-29T10:41:38;9.32;;;4.28;;
35646;SDS011;28680;45.642;13.756;2023-05-29T10:44:38;5.90;;;3.75;;
35646;SDS011;28680;45.642;13.756;2023-05-29T10:49:30;10.38;;;4.00;;
35646;SDS011;28680;45.642;13.756;2023-05-29T10:51:57;5.93;;;4.07;;
35646;SDS011;28680;45.642;13.756;2023-05-29T10:54:28;7.78;;;4.10;;
35646;SDS011;28680;45.642;13.756;2023-05-29T10:57:07;6.50;;;3.90;;
35646;SDS011;28680;45.642;13.756;2023-05-29T10:59:37;7.60;;;4.28;;
35646;SDS011;28680;45.642;13.756;2023-05-29T11:02:03;7.72;;;4.03;;
35646;SDS011;28680;45.642;13.756;2023-05-29T11:04:32;7.07;;;3.88;;
35646;SDS011;28680;45.642;13.756;2023-05-29T11:06:59;9.45;;;3.72;;
35646;SDS011;28680;45.642;13.756;2023-05-29T11:09:29;6.70;;;4.28;;
35646;SDS011;28680;45.642;13.756;2023-05-29T11:14:56;10.20;;;4.50;;
35646;SDS011;28680;45.642;13.756;2023-05-29T11:20:07;8.95;;;4.50;;
35646;SDS011;28680;45.642;13.756;2023-05-29T11:23:08;7.22;;;4.70;;
35646;SDS011;28680;45.642;13.756;2023-05-29T11:25:44;8.63;;;4.78;;
35646;SDS011;28680;45.642;13.756;2023-05-29T11:28:12;7.03;;;4.07;;
35646;SDS011;28680;45.642;13.756;2023-05-29T11:30:56;8.52;;;4.43;;
35646;SDS011;28680;45.642;13.756;2023-05-29T11:33:29;7.43;;;4.60;;
35646;SDS011;28680;45.642;13.756;2023-05-29T11:35:58;5.85;;;4.50;;
35646;SDS011;28680;45.642;13.756;2023-05-29T11:38:25;9.48;;;4.18;;
35646;SDS011;28680;45.642;13.756;2023-05-29T11:40:56;9.93;;;5.00;;
35646;SDS011;28680;45.642;13.756;2023-05-29T11:43:23;7.40;;;4.78;;
35646;SDS011;28680;45.642;13.756;2023-05-29T11:45:50;9.82;;;4.40;;
35646;SDS011;28680;45.642;13.756;2023-05-29T11:48:16;9.13;;;4.93;;
35646;SDS011;28680;45.642;13.756;2023-05-29T11:50:41;8.38;;;4.47;;
35646;SDS011;28680;45.642;13.756;2023-05-29T11:53:09;6.82;;;4.47;;
35646;SDS011;28680;45.642;13.756;2023-05-29T11:55:37;6.70;;;4.13;;
35646;SDS011;28680;45.642;13.756;2023-05-29T11:58:04;8.45;;;4.50;;
35646;SDS011;28680;45.642;13.756;2023-05-29T12:00:31;8.65;;;4.38;;
35646;SDS011;28680;45.642;13.756;2023-05-29T12:03:03;8.63;;;4.10;;
35646;SDS011;28680;45.642;13.756;2023-05-29T12:05:43;9.05;;;4.40;;
35646;SDS011;28680;45.642;13.756;2023-05-29T12:08:24;7.88;;;4.60;;
35646;SDS011;28680;45.642;13.756;2023-05-29T12:13:18;7.18;;;4.20;;
35646;SDS011;28680;45.642;13.756;2023-05-29T12:15:45;8.82;;;4.20;;
35646;SDS011;28680;45.642;13.756;2023-05-29T12:18:14;7.45;;;4.70;;
35646;SDS011;28680;45.642;13.756;2023-05-29T12:20:40;8.48;;;4.18;;
35646;SDS011;28680;45.642;13.756;2023-05-29T12:23:06;12.93;;;5.13;;
35646;SDS011;28680;45.642;13.756;2023-05-29T12:25:34;9.35;;;4.10;;
35646;SDS011;28680;45.642;13.756;2023-05-29T12:28:03;7.72;;;4.28;;
35646;SDS011;28680;45.642;13.756;2023-05-29T12:30:30;7.38;;;4.75;;
35646;SDS011;28680;45.642;13.756;2023-05-29T12:32:56;6.88;;;4.18;;
35646;SDS011;28680;45.642;13.756;2023-05-29T12:35:25;7.43;;;4.30;;
35646;SDS011;28680;45.642;13.756;2023-05-29T12:38:00;6.63;;;4.60;;
35646;SDS011;28680;45.642;13.756;2023-05-29T12:40:33;6.97;;;4.30;;
35646;SDS011;28680;45.642;13.756;2023-05-29T12:43:00;8.20;;;4.47;;
35646;SDS011;28680;45.642;13.756;2023-05-29T12:45:29;11.40;;;4.55;;
35646;SDS011;28680;45.642;13.756;2023-05-29T12:48:06;6.40;;;4.20;;
35646;SDS011;28680;45.642;13.756;2023-05-29T12:50:33;8.05;;;5.00;;
35646;SDS011;28680;45.642;13.756;2023-05-29T12:53:11;9.00;;;4.90;;
35646;SDS011;28680;45.642;13.756;2023-05-29T12:55:41;6.15;;;4.30;;
35646;SDS011;28680;45.642;13.756;2023-05-29T12:58:09;6.95;;;3.83;;
35646;SDS011;28680;45.642;13.756;2023-05-29T13:00:41;8.52;;;4.95;;
35646;SDS011;28680;45.642;13.756;2023-05-29T13:03:09;7.80;;;4.40;;
35646;SDS011;28680;45.642;13.756;2023-05-29T13:05:36;13.23;;;4.32;;
35646;SDS011;28680;45.642;13.756;2023-05-29T13:08:02;8.02;;;4.45;;
35646;SDS011;28680;45.642;13.756;2023-05-29T13:10:31;6.68;;;4.25;;
35646;SDS011;28680;45.642;13.756;2023-05-29T13:12:57;7.35;;;4.68;;
35646;SDS011;28680;45.642;13.756;2023-05-29T13:15:27;8.05;;;4.75;;
35646;SDS011;28680;45.642;13.756;2023-05-29T13:17:53;6.75;;;4.43;;
35646;SDS011;28680;45.642;13.756;2023-05-29T13:20:19;7.40;;;4.35;;
35646;SDS011;28680;45.642;13.756;2023-05-29T13:22:46;6.90;;;4.68;;
35646;SDS011;28680;45.642;13.756;2023-05-29T13:25:16;11.85;;;5.05;;
35646;SDS011;28680;45.642;13.756;2023-05-29T13:27:51;6.93;;;4.47;;
35646;SDS011;28680;45.642;13.756;2023-05-29T13:30:18;6.35;;;4.22;;
35646;SDS011;28680;45.642;13.756;2023-05-29T13:32:45;9.20;;;4.93;;
35646;SDS011;28680;45.642;13.756;2023-05-29T13:35:31;7.18;;;4.40;;
35646;SDS011;28680;45.642;13.756;2023-05-29T13:37:59;7.03;;;4.50;;
35646;SDS011;28680;45.642;13.756;2023-05-29T13:40:25;10.07;;;4.80;;
35646;SDS011;28680;45.642;13.756;2023-05-29T13:42:53;5.63;;;4.00;;
35646;SDS011;28680;45.642;13.756;2023-05-29T13:45:19;6.85;;;3.90;;
35646;SDS011;28680;45.642;13.756;2023-05-29T13:47:48;6.43;;;4.40;;
35646;SDS011;28680;45.642;13.756;2023-05-29T13:50:14;6.10;;;4.40;;
35646;SDS011;28680;45.642;13.756;2023-05-29T13:52:40;6.40;;;4.22;;
35646;SDS011;28680;45.642;13.756;2023-05-29T13:55:09;7.85;;;4.35;;
35646;SDS011;28680;45.642;13.756;2023-05-29T13:57:36;9.80;;;4.40;;
35646;SDS011;28680;45.642;13.756;2023-05-29T14:00:03;9.10;;;4.90;;
35646;SDS011;28680;45.642;13.756;2023-05-29T14:02:30;11.48;;;5.72;;
35646;SDS011;28680;45.642;13.756;2023-05-29T14:04:59;7.40;;;4.70;;
35646;SDS011;28680;45.642;13.756;2023-05-29T14:07:25;8.23;;;4.95;;
35646;SDS011;28680;45.642;13.756;2023-05-29T14:09:54;8.43;;;4.97;;
35646;SDS011;28680;45.642;13.756;2023-05-29T14:12:20;6.28;;;4.82;;
35646;SDS011;28680;45.642;13.756;2023-05-29T14:14:46;8.45;;;4.93;;
35646;SDS011;28680;45.642;13.756;2023-05-29T14:17:13;5.72;;;4.53;;
35646;SDS011;28680;45.642;13.756;2023-05-29T14:19:40;9.38;;;4.75;;
35646;SDS011;28680;45.642;13.756;2023-05-29T14:22:06;9.18;;;5.38;;
35646;SDS011;28680;45.642;13.756;2023-05-29T14:24:36;8.02;;;4.63;;
35646;SDS011;28680;45.642;13.756;2023-05-29T14:27:02;8.25;;;4.93;;
35646;SDS011;28680;45.642;13.756;2023-05-29T14:29:28;7.45;;;4.72;;
35646;SDS011;28680;45.642;13.756;2023-05-29T14:31:54;6.68;;;4.20;;
35646;SDS011;28680;45.642;13.756;2023-05-29T14:34:20;6.82;;;4.40;;
35646;SDS011;28680;45.642;13.756;2023-05-29T14:36:46;6.13;;;4.10;;
35646;SDS011;28680;45.642;13.756;2023-05-29T14:39:12;7.88;;;4.10;;
35646;SDS011;28680;45.642;13.756;2023-05-29T14:41:38;7.28;;;3.80;;
35646;SDS011;28680;45.642;13.756;2023-05-29T14:44:04;9.48;;;4.70;;
35646;SDS011;28680;45.642;13.756;2023-05-29T14:46:30;5.75;;;4.22;;
35646;SDS011;28680;45.642;13.756;2023-05-29T14:49:00;9.65;;;4.65;;
35646;SDS011;28680;45.642;13.756;2023-05-29T14:51:27;6.15;;;4.10;;
35646;SDS011;28680;45.642;13.756;2023-05-29T14:53:55;7.30;;;4.28;;
35646;SDS011;28680;45.642;13.756;2023-05-29T14:56:21;7.00;;;4.50;;
35646;SDS011;28680;45.642;13.756;2023-05-29T14:58:55;8.23;;;4.65;;
35646;SDS011;28680;45.642;13.756;2023-05-29T15:01:37;6.30;;;4.65;;
35646;SDS011;28680;45.642;13.756;2023-05-29T15:04:03;5.47;;;4.38;;
35646;SDS011;28680;45.642;13.756;2023-05-29T15:06:30;8.35;;;4.43;;
35646;SDS011;28680;45.642;13.756;2023-05-29T15:08:58;7.63;;;4.65;;
35646;SDS011;28680;45.642;13.756;2023-05-29T15:11:28;6.78;;;4.60;;
35646;SDS011;28680;45.642;13.756;2023-05-29T15:13:56;6.75;;;4.32;;
35646;SDS011;28680;45.642;13.756;2023-05-29T15:16:22;7.30;;;4.85;;
35646;SDS011;28680;45.642;13.756;2023-05-29T15:18:48;6.18;;;4.20;;
35646;SDS011;28680;45.642;13.756;2023-05-29T15:21:14;5.47;;;4.00;;
35646;SDS011;28680;45.642;13.756;2023-05-29T15:23:40;5.53;;;3.90;;
35646;SDS011;28680;45.642;13.756;2023-05-29T15:26:09;7.90;;;4.35;;
35646;SDS011;28680;45.642;13.756;2023-05-29T15:28:35;5.43;;;3.80;;
35646;SDS011;28680;45.642;13.756;2023-05-29T15:31:01;7.20;;;4.47;;
35646;SDS011;28680;45.642;13.756;2023-05-29T15:33:33;9.48;;;4.43;;